Como, Indiana
Current Conditions -  °F | °C
As of 11:53 PM on Monday 22 Dec 2014 (Local Time) from KMIE Reporting Station
Overcast Overcast  
Wind Chill: 41°   Ceiling: 2900
Heat Index: 47°   Visibility: 10mi
Dew Point: 39°   Wind: 13mph
Humidity: 74%   Direction: 160°SSE
Pressure: 29.68"   Gusts: NA
Location:  40.4312°N, 85.0058°W
Report Text: KMIE 230453Z AUTO 16011KT 10SM BKN029 OVC060 08/04 A2968 RMK AO2 SLP053 T00830039 400831039
Loading
Personal Weather Stations






























Interactive Weather Map New forecast layout! Learn more

10-Day Weather Forecast

Advertisements
Track Severe Weather on mobile